createdAt,value
2023-04-18T00:00:29.166Z,19.37
2023-04-18T00:05:33.824Z,19.03
2023-04-18T00:10:37.146Z,17.38
2023-04-18T00:15:43.003Z,19.92
2023-04-18T00:20:47.743Z,19.27
2023-04-18T00:25:50.993Z,22.10
2023-04-18T00:30:54.418Z,21.60
2023-04-18T00:35:59.091Z,22.13
2023-04-18T00:41:02.419Z,23.73
2023-04-18T00:46:06.345Z,22.90
2023-04-18T00:51:13.237Z,27.55
2023-04-18T00:56:17.789Z,26.73
2023-04-18T01:01:21.661Z,26.17
2023-04-18T01:06:27.713Z,29.03
2023-04-18T01:11:31.558Z,30.60
2023-04-18T01:16:35.109Z,30.38
2023-04-18T01:21:43.832Z,29.70
2023-04-18T01:26:51.148Z,32.15
2023-04-18T01:31:54.651Z,29.97
2023-04-18T01:36:57.990Z,29.23
2023-04-18T01:42:02.913Z,32.08
2023-04-18T01:47:06.246Z,34.63
2023-04-18T01:52:09.594Z,33.58
2023-04-18T01:57:14.278Z,32.75
2023-04-18T02:02:17.736Z,31.38
2023-04-18T02:07:21.091Z,32.70
2023-04-18T02:12:25.923Z,28.98
2023-04-18T02:17:30.543Z,30.85
2023-04-18T02:22:33.846Z,33.50
2023-04-18T02:27:38.527Z,35.60
2023-04-18T02:32:41.900Z,38.42
2023-04-18T02:37:45.689Z,35.08
2023-04-18T02:42:50.494Z,35.63
2023-04-18T02:47:55.975Z,34.17
2023-04-18T02:53:00.177Z,36.47
2023-04-18T02:58:15.212Z,31.77
2023-04-18T03:03:37.244Z,30.83
2023-04-18T03:08:55.335Z,28.98
2023-04-18T03:14:01.839Z,28.75
2023-04-18T03:19:12.955Z,31.83
2023-04-18T03:24:16.705Z,29.33
2023-04-18T03:29:26.120Z,31.80
2023-04-18T03:34:29.728Z,32.63
2023-04-18T03:39:33.495Z,32.25
2023-04-18T03:44:38.881Z,34.05
2023-04-18T03:49:43.363Z,32.92
2023-04-18T03:54:46.754Z,33.80
2023-04-18T03:59:53.496Z,30.13
2023-04-18T04:04:57.939Z,35.78
2023-04-18T04:10:01.494Z,33.70
2023-04-18T04:15:07.477Z,34.85
2023-04-18T04:20:14.368Z,39.72
2023-04-18T04:25:19.446Z,40.13
2023-04-18T04:30:24.479Z,41.03
2023-04-18T04:35:28.463Z,35.47
2023-04-18T04:40:32.150Z,35.00
2023-04-18T04:45:45.601Z,41.60
2023-04-18T04:50:53.958Z,42.50
2023-04-18T04:55:57.760Z,46.77
2023-04-18T05:01:02.612Z,44.67
2023-04-18T05:06:08.232Z,39.08
2023-04-18T05:11:12.292Z,36.03
2023-04-18T05:16:17.115Z,32.03
2023-04-18T05:21:20.429Z,25.60
2023-04-18T05:26:24.404Z,26.80
2023-04-18T05:31:29.143Z,25.05
2023-04-18T05:36:32.938Z,23.73
2023-04-18T05:41:36.241Z,23.85
2023-04-18T05:46:41.000Z,23.10
2023-04-18T05:51:44.252Z,21.80
2023-04-18T05:56:47.527Z,20.95
2023-04-18T06:01:52.171Z,21.30
2023-04-18T06:06:55.482Z,19.43
2023-04-18T06:11:58.957Z,20.00
2023-04-18T06:17:03.638Z,19.40
2023-04-18T06:22:07.031Z,21.55
2023-04-18T06:27:17.695Z,19.77
2023-04-18T06:32:32.865Z,19.50
2023-04-18T06:37:36.196Z,21.42
2023-04-18T06:42:39.527Z,21.25
2023-04-18T06:47:44.257Z,22.08
2023-04-18T06:52:47.510Z,23.30
2023-04-18T06:57:50.835Z,22.10
2023-04-18T07:02:55.539Z,22.30
2023-04-18T07:07:59.138Z,20.58
2023-04-18T07:13:02.388Z,20.97
2023-04-18T07:18:07.200Z,20.47
2023-04-18T07:23:11.141Z,18.58
2023-04-18T07:28:14.440Z,20.70
2023-04-18T07:33:19.025Z,17.97
2023-04-18T07:38:22.298Z,20.55
2023-04-18T07:43:25.598Z,18.23
2023-04-18T07:48:30.154Z,18.38
2023-04-18T07:53:33.395Z,19.08
2023-04-18T07:58:36.820Z,19.60
2023-04-18T08:03:41.904Z,18.48
2023-04-18T08:08:45.371Z,16.60
2023-04-18T08:13:48.767Z,18.08
2023-04-18T08:18:53.480Z,17.05
2023-04-18T08:23:57.166Z,17.30
2023-04-18T08:29:00.377Z,16.43
2023-04-18T08:34:05.294Z,16.47
2023-04-18T08:39:08.703Z,17.17
2023-04-18T08:44:13.043Z,16.90
2023-04-18T08:49:18.011Z,16.95
2023-04-18T08:54:22.592Z,14.27
2023-04-18T08:59:26.530Z,14.77
2023-04-18T09:04:39.735Z,13.57
2023-04-18T09:09:44.529Z,11.55
2023-04-18T09:14:48.628Z,11.52
2023-04-18T09:19:54.621Z,12.27
2023-04-18T09:24:58.341Z,11.68
2023-04-18T09:30:01.582Z,11.33
2023-04-18T09:35:06.869Z,10.60
2023-04-18T09:40:19.173Z,11.15
2023-04-18T09:45:23.677Z,10.53
2023-04-18T09:50:28.509Z,10.07
2023-04-18T09:55:33.471Z,9.85
2023-04-18T10:00:38.766Z,9.33
2023-04-18T10:05:43.820Z,9.88
2023-04-18T10:10:47.620Z,10.00
2023-04-18T10:15:52.517Z,9.03
2023-04-18T10:21:04.469Z,9.40
2023-04-18T10:26:08.896Z,8.53
2023-04-18T10:31:12.257Z,9.50
2023-04-18T10:36:20.154Z,8.85
2023-04-18T10:41:25.555Z,9.20
2023-04-18T10:46:32.436Z,8.93
2023-04-18T10:51:37.868Z,10.18
2023-04-18T10:56:41.353Z,10.20
2023-04-18T11:01:50.281Z,10.77
2023-04-18T11:06:57.336Z,10.68
2023-04-18T11:12:08.237Z,9.67
2023-04-18T11:17:22.070Z,11.35
2023-04-18T11:22:26.969Z,9.77
2023-04-18T11:27:31.148Z,11.93
2023-04-18T11:32:36.367Z,9.20
2023-04-18T11:37:42.026Z,8.90
2023-04-18T11:42:45.375Z,8.70
2023-04-18T11:47:48.848Z,9.33
2023-04-18T11:52:55.028Z,8.63
2023-04-18T11:57:59.588Z,7.97
2023-04-18T12:03:04.599Z,7.03
2023-04-18T12:08:11.572Z,6.93
2023-04-18T12:13:15.245Z,7.05
2023-04-18T12:18:19.970Z,7.47
2023-04-18T12:23:38.996Z,6.50
2023-04-18T12:28:46.539Z,6.40
2023-04-18T12:33:50.636Z,6.88
2023-04-18T12:38:55.290Z,6.95
2023-04-18T12:43:58.523Z,6.50
2023-04-18T12:49:01.905Z,7.10
2023-04-18T12:54:06.767Z,8.07
2023-04-18T12:59:10.012Z,9.27
2023-04-18T13:04:13.572Z,8.30
2023-04-18T13:09:18.620Z,8.10
2023-04-18T13:14:22.076Z,8.50
2023-04-18T13:19:25.513Z,8.65
2023-04-18T13:24:30.212Z,8.10
2023-04-18T13:29:33.451Z,8.55
2023-04-18T13:34:39.001Z,8.65
2023-04-18T13:39:44.037Z,9.13
2023-04-18T13:44:48.185Z,9.15
2023-04-18T13:49:51.657Z,8.43
2023-04-18T13:54:56.555Z,7.60
2023-04-18T13:59:59.800Z,7.30
2023-04-18T14:05:03.239Z,7.75
2023-04-18T14:10:09.633Z,7.00
2023-04-18T14:15:13.253Z,6.20
2023-04-18T14:20:19.277Z,5.82
2023-04-18T14:25:23.985Z,5.93
2023-04-18T14:30:27.373Z,5.57
2023-04-18T14:35:30.747Z,5.60
2023-04-18T14:40:36.020Z,4.80
2023-04-18T14:45:39.428Z,4.85
2023-04-18T14:50:43.806Z,5.28
2023-04-18T14:55:48.483Z,6.07
2023-04-18T15:00:52.340Z,5.75
2023-04-18T15:05:55.603Z,6.43
2023-04-18T15:11:01.168Z,7.77
2023-04-18T15:16:04.670Z,8.20
2023-04-18T15:21:07.963Z,7.97
2023-04-18T15:26:12.640Z,8.05
2023-04-18T15:31:16.558Z,8.50
2023-04-18T15:36:19.961Z,9.25
2023-04-18T15:41:24.704Z,7.55
2023-04-18T15:46:28.070Z,7.60
2023-04-18T15:51:31.476Z,8.45
2023-04-18T15:56:36.955Z,9.18
2023-04-18T16:01:40.719Z,9.77
2023-04-18T16:06:44.029Z,9.25
2023-04-18T16:11:48.656Z,8.15
2023-04-18T16:16:53.765Z,8.52
2023-04-18T16:21:57.158Z,8.02
2023-04-18T16:27:02.847Z,7.95
2023-04-18T16:32:08.150Z,7.28
2023-04-18T16:37:11.457Z,7.47
2023-04-18T16:42:16.218Z,7.78
2023-04-18T16:47:20.385Z,7.88
2023-04-18T16:52:24.093Z,8.93
2023-04-18T16:57:28.818Z,6.72
2023-04-18T17:02:34.048Z,7.53
2023-04-18T17:07:37.724Z,5.90
2023-04-18T17:12:42.684Z,6.10
2023-04-18T17:17:46.146Z,5.67
2023-04-18T17:22:49.611Z,5.50
2023-04-18T17:27:54.431Z,5.80
2023-04-18T17:32:57.711Z,5.82
2023-04-18T17:38:01.114Z,5.50
2023-04-18T17:43:06.056Z,5.40
2023-04-18T17:48:09.333Z,6.43
2023-04-18T17:53:12.938Z,7.10
2023-04-18T17:58:17.612Z,7.35
2023-04-18T18:03:21.454Z,6.87
2023-04-18T18:08:25.743Z,7.57
2023-04-18T18:13:30.439Z,7.75
2023-04-18T18:18:33.708Z,7.57
2023-04-18T18:23:37.058Z,7.40
2023-04-18T18:28:41.664Z,8.13
2023-04-18T18:33:44.898Z,7.80
2023-04-18T18:38:48.193Z,8.02
2023-04-18T18:43:53.457Z,7.53
2023-04-18T18:48:56.719Z,7.38
2023-04-18T18:54:00.641Z,7.85
2023-04-18T18:59:05.358Z,8.05
2023-04-18T19:04:08.856Z,8.02
2023-04-18T19:09:12.974Z,8.20
2023-04-18T19:14:17.899Z,8.90
2023-04-18T19:19:21.259Z,9.18
2023-04-18T19:24:24.529Z,10.75
2023-04-18T19:29:31.912Z,9.95
2023-04-18T19:34:35.980Z,10.55
2023-04-18T19:39:39.273Z,10.77
2023-04-18T19:44:44.342Z,11.45
2023-04-18T19:49:48.127Z,10.93
2023-04-18T19:54:52.909Z,12.73
2023-04-18T19:59:57.805Z,10.70
2023-04-18T20:05:01.464Z,10.65
2023-04-18T20:10:09.570Z,10.70
2023-04-18T20:15:14.673Z,11.97
2023-04-18T20:20:17.955Z,11.77
2023-04-18T20:25:21.535Z,12.82
2023-04-18T20:30:26.543Z,12.20
2023-04-18T20:35:29.824Z,12.57
2023-04-18T20:40:34.398Z,13.20
2023-04-18T20:45:43.022Z,12.63
2023-04-18T20:50:51.298Z,13.80
2023-04-18T20:55:55.317Z,13.23
2023-04-18T21:01:00.102Z,13.50
2023-04-18T21:06:03.533Z,14.20
2023-04-18T21:11:07.460Z,13.70
2023-04-18T21:16:12.183Z,12.63
2023-04-18T21:21:15.612Z,13.98
2023-04-18T21:26:19.148Z,13.07
2023-04-18T21:31:24.321Z,12.63
2023-04-18T21:36:29.557Z,12.85
2023-04-18T21:41:33.029Z,13.45
2023-04-18T21:46:37.940Z,14.25
2023-04-18T21:51:41.349Z,13.05
2023-04-18T21:56:44.754Z,15.02
2023-04-18T22:01:49.494Z,14.55
2023-04-18T22:06:54.244Z,15.25
2023-04-18T22:11:57.787Z,14.15
2023-04-18T22:17:03.251Z,14.03
2023-04-18T22:22:06.657Z,14.57
2023-04-18T22:27:10.169Z,14.35
2023-04-18T22:32:14.882Z,14.60
2023-04-18T22:37:18.429Z,15.17
2023-04-18T22:42:21.756Z,14.82
2023-04-18T22:47:26.921Z,14.50
2023-04-18T22:52:30.930Z,15.20
2023-04-18T22:57:34.436Z,14.93
2023-04-18T23:02:39.414Z,14.63
2023-04-18T23:07:42.875Z,14.15
2023-04-18T23:12:46.345Z,14.43
2023-04-18T23:17:53.041Z,13.40
2023-04-18T23:22:56.544Z,12.83
2023-04-18T23:27:59.911Z,13.90
2023-04-18T23:33:04.882Z,13.90
2023-04-18T23:38:08.271Z,13.97
2023-04-18T23:43:11.643Z,14.10
2023-04-18T23:48:16.464Z,14.02
2023-04-18T23:53:20.452Z,14.00
2023-04-18T23:58:23.923Z,13.88
